sensor_id;sensor_type;location;lat;lon;timestamp;P1;durP1;ratioP1;P2;durP2;ratioP2
21581;SDS011;10952;50.836;4.348;2023-05-16T00:01:48;13.10;;;2.20;;
21581;SDS011;10952;50.836;4.348;2023-05-16T00:09:14;14.53;;;2.77;;
21581;SDS011;10952;50.836;4.348;2023-05-16T00:11:40;15.37;;;2.67;;
21581;SDS011;10952;50.836;4.348;2023-05-16T00:14:16;22.63;;;2.80;;
21581;SDS011;10952;50.836;4.348;2023-05-16T00:16:43;18.70;;;2.57;;
21581;SDS011;10952;50.836;4.348;2023-05-16T00:19:16;17.40;;;2.87;;
21581;SDS011;10952;50.836;4.348;2023-05-16T00:24:13;15.27;;;2.90;;
21581;SDS011;10952;50.836;4.348;2023-05-16T00:26:40;16.47;;;2.73;;
21581;SDS011;10952;50.836;4.348;2023-05-16T00:29:06;20.80;;;2.67;;
21581;SDS011;10952;50.836;4.348;2023-05-16T00:31:33;19.50;;;2.60;;
21581;SDS011;10952;50.836;4.348;2023-05-16T00:34:00;14.53;;;2.70;;
21581;SDS011;10952;50.836;4.348;2023-05-16T00:36:28;20.00;;;2.67;;
21581;SDS011;10952;50.836;4.348;2023-05-16T00:42:18;14.77;;;3.10;;
21581;SDS011;10952;50.836;4.348;2023-05-16T00:44:48;23.30;;;2.90;;
21581;SDS011;10952;50.836;4.348;2023-05-16T00:49:46;15.87;;;2.77;;
21581;SDS011;10952;50.836;4.348;2023-05-16T00:52:12;14.07;;;2.50;;
21581;SDS011;10952;50.836;4.348;2023-05-16T00:54:37;7.57;;;2.23;;
21581;SDS011;10952;50.836;4.348;2023-05-16T01:00:07;15.07;;;2.90;;
21581;SDS011;10952;50.836;4.348;2023-05-16T01:02:41;17.50;;;2.37;;
21581;SDS011;10952;50.836;4.348;2023-05-16T01:05:10;17.07;;;2.40;;
21581;SDS011;10952;50.836;4.348;2023-05-16T01:07:40;15.23;;;3.20;;
21581;SDS011;10952;50.836;4.348;2023-05-16T01:10:20;19.83;;;3.37;;
21581;SDS011;10952;50.836;4.348;2023-05-16T01:18:51;17.07;;;2.20;;
21581;SDS011;10952;50.836;4.348;2023-05-16T01:24:29;20.07;;;2.97;;
21581;SDS011;10952;50.836;4.348;2023-05-16T01:27:06;16.17;;;2.93;;
21581;SDS011;10952;50.836;4.348;2023-05-16T01:29:36;14.23;;;3.03;;
21581;SDS011;10952;50.836;4.348;2023-05-16T01:32:02;18.17;;;2.40;;
21581;SDS011;10952;50.836;4.348;2023-05-16T01:37:40;19.00;;;3.20;;
21581;SDS011;10952;50.836;4.348;2023-05-16T01:40:29;14.07;;;2.43;;
21581;SDS011;10952;50.836;4.348;2023-05-16T01:43:41;21.43;;;2.87;;
21581;SDS011;10952;50.836;4.348;2023-05-16T01:55:48;18.87;;;2.80;;
21581;SDS011;10952;50.836;4.348;2023-05-16T01:58:16;14.00;;;3.20;;
21581;SDS011;10952;50.836;4.348;2023-05-16T02:00:45;17.27;;;3.20;;
21581;SDS011;10952;50.836;4.348;2023-05-16T02:03:11;21.40;;;3.43;;
21581;SDS011;10952;50.836;4.348;2023-05-16T02:05:36;16.43;;;2.80;;
21581;SDS011;10952;50.836;4.348;2023-05-16T02:08:05;9.73;;;2.33;;
21581;SDS011;10952;50.836;4.348;2023-05-16T02:10:34;19.47;;;2.93;;
21581;SDS011;10952;50.836;4.348;2023-05-16T02:13:00;12.27;;;2.60;;
21581;SDS011;10952;50.836;4.348;2023-05-16T02:15:25;14.47;;;2.80;;
21581;SDS011;10952;50.836;4.348;2023-05-16T02:20:20;18.43;;;2.50;;
21581;SDS011;10952;50.836;4.348;2023-05-16T02:25:17;23.07;;;2.63;;
21581;SDS011;10952;50.836;4.348;2023-05-16T02:30:16;13.57;;;2.93;;
21581;SDS011;10952;50.836;4.348;2023-05-16T02:32:42;16.53;;;2.93;;
21581;SDS011;10952;50.836;4.348;2023-05-16T02:35:12;20.50;;;3.00;;
21581;SDS011;10952;50.836;4.348;2023-05-16T02:40:08;19.20;;;3.30;;
21581;SDS011;10952;50.836;4.348;2023-05-16T02:42:34;21.63;;;3.67;;
21581;SDS011;10952;50.836;4.348;2023-05-16T02:45:03;22.03;;;3.43;;
21581;SDS011;10952;50.836;4.348;2023-05-16T02:47:33;13.27;;;2.80;;
21581;SDS011;10952;50.836;4.348;2023-05-16T02:50:02;22.50;;;3.47;;
21581;SDS011;10952;50.836;4.348;2023-05-16T02:52:36;14.00;;;3.27;;
21581;SDS011;10952;50.836;4.348;2023-05-16T02:57:34;16.93;;;3.30;;
21581;SDS011;10952;50.836;4.348;2023-05-16T03:02:33;19.80;;;3.17;;
21581;SDS011;10952;50.836;4.348;2023-05-16T03:07:28;18.77;;;3.40;;
21581;SDS011;10952;50.836;4.348;2023-05-16T03:09:54;18.07;;;3.27;;
21581;SDS011;10952;50.836;4.348;2023-05-16T03:12:20;15.13;;;2.87;;
21581;SDS011;10952;50.836;4.348;2023-05-16T03:14:47;12.83;;;2.60;;
21581;SDS011;10952;50.836;4.348;2023-05-16T03:17:12;15.07;;;3.13;;
21581;SDS011;10952;50.836;4.348;2023-05-16T03:19:41;12.40;;;3.07;;
21581;SDS011;10952;50.836;4.348;2023-05-16T03:24:56;19.70;;;3.47;;
21581;SDS011;10952;50.836;4.348;2023-05-16T03:27:23;22.27;;;3.40;;
21581;SDS011;10952;50.836;4.348;2023-05-16T03:29:53;15.40;;;2.80;;
21581;SDS011;10952;50.836;4.348;2023-05-16T03:32:25;20.30;;;3.00;;
21581;SDS011;10952;50.836;4.348;2023-05-16T03:34:54;16.43;;;2.70;;
21581;SDS011;10952;50.836;4.348;2023-05-16T03:37:23;15.63;;;3.43;;
21581;SDS011;10952;50.836;4.348;2023-05-16T03:42:22;19.00;;;3.57;;
21581;SDS011;10952;50.836;4.348;2023-05-16T03:44:57;13.70;;;2.90;;
21581;SDS011;10952;50.836;4.348;2023-05-16T03:47:22;16.03;;;2.97;;
21581;SDS011;10952;50.836;4.348;2023-05-16T03:49:49;12.13;;;3.23;;
21581;SDS011;10952;50.836;4.348;2023-05-16T03:52:18;16.83;;;2.67;;
21581;SDS011;10952;50.836;4.348;2023-05-16T03:54:43;14.77;;;3.00;;
21581;SDS011;10952;50.836;4.348;2023-05-16T03:57:09;22.23;;;3.40;;
21581;SDS011;10952;50.836;4.348;2023-05-16T04:02:05;16.83;;;2.90;;
21581;SDS011;10952;50.836;4.348;2023-05-16T04:08:05;19.27;;;3.63;;
21581;SDS011;10952;50.836;4.348;2023-05-16T04:10:42;22.80;;;3.10;;
21581;SDS011;10952;50.836;4.348;2023-05-16T04:13:18;14.03;;;2.23;;
21581;SDS011;10952;50.836;4.348;2023-05-16T04:15:44;17.93;;;3.63;;
21581;SDS011;10952;50.836;4.348;2023-05-16T04:24:01;13.33;;;3.47;;
21581;SDS011;10952;50.836;4.348;2023-05-16T04:26:29;18.57;;;3.67;;
21581;SDS011;10952;50.836;4.348;2023-05-16T04:28:57;25.63;;;3.30;;
21581;SDS011;10952;50.836;4.348;2023-05-16T04:31:24;18.33;;;3.07;;
21581;SDS011;10952;50.836;4.348;2023-05-16T04:33:49;18.83;;;3.90;;
21581;SDS011;10952;50.836;4.348;2023-05-16T04:36:16;23.90;;;3.97;;
21581;SDS011;10952;50.836;4.348;2023-05-16T04:38:57;19.93;;;3.90;;
21581;SDS011;10952;50.836;4.348;2023-05-16T04:43:54;14.00;;;3.27;;
21581;SDS011;10952;50.836;4.348;2023-05-16T04:46:20;17.73;;;3.07;;
21581;SDS011;10952;50.836;4.348;2023-05-16T04:48:49;17.40;;;3.17;;
21581;SDS011;10952;50.836;4.348;2023-05-16T04:51:16;18.43;;;2.87;;
21581;SDS011;10952;50.836;4.348;2023-05-16T04:53:41;19.53;;;3.47;;
21581;SDS011;10952;50.836;4.348;2023-05-16T04:56:14;15.27;;;2.50;;
21581;SDS011;10952;50.836;4.348;2023-05-16T04:58:41;16.53;;;3.70;;
21581;SDS011;10952;50.836;4.348;2023-05-16T05:01:06;17.77;;;2.87;;
21581;SDS011;10952;50.836;4.348;2023-05-16T05:06:17;14.47;;;3.33;;
21581;SDS011;10952;50.836;4.348;2023-05-16T05:08:52;18.20;;;2.90;;
21581;SDS011;10952;50.836;4.348;2023-05-16T05:11:18;18.07;;;3.40;;
21581;SDS011;10952;50.836;4.348;2023-05-16T05:13:46;13.30;;;2.80;;
21581;SDS011;10952;50.836;4.348;2023-05-16T05:16:11;15.93;;;3.07;;
21581;SDS011;10952;50.836;4.348;2023-05-16T05:18:37;14.23;;;2.43;;
21581;SDS011;10952;50.836;4.348;2023-05-16T05:21:04;15.20;;;3.33;;
21581;SDS011;10952;50.836;4.348;2023-05-16T05:23:30;18.87;;;3.47;;
21581;SDS011;10952;50.836;4.348;2023-05-16T05:28:32;21.60;;;2.97;;
21581;SDS011;10952;50.836;4.348;2023-05-16T05:31:02;16.53;;;3.27;;
21581;SDS011;10952;50.836;4.348;2023-05-16T05:33:29;8.93;;;2.47;;
21581;SDS011;10952;50.836;4.348;2023-05-16T05:35:56;17.07;;;2.50;;
21581;SDS011;10952;50.836;4.348;2023-05-16T05:38:24;11.37;;;2.37;;
21581;SDS011;10952;50.836;4.348;2023-05-16T05:40:50;16.83;;;3.03;;
21581;SDS011;10952;50.836;4.348;2023-05-16T05:45:54;14.67;;;3.33;;
21581;SDS011;10952;50.836;4.348;2023-05-16T05:51:00;11.57;;;2.37;;
21581;SDS011;10952;50.836;4.348;2023-05-16T05:53:26;13.53;;;2.60;;
21581;SDS011;10952;50.836;4.348;2023-05-16T05:55:52;11.10;;;2.50;;
21581;SDS011;10952;50.836;4.348;2023-05-16T05:58:18;9.37;;;2.87;;
21581;SDS011;10952;50.836;4.348;2023-05-16T06:03:42;15.97;;;3.13;;
21581;SDS011;10952;50.836;4.348;2023-05-16T06:06:11;13.77;;;2.83;;
21581;SDS011;10952;50.836;4.348;2023-05-16T06:11:28;9.23;;;2.00;;
21581;SDS011;10952;50.836;4.348;2023-05-16T06:13:58;11.07;;;2.67;;
21581;SDS011;10952;50.836;4.348;2023-05-16T06:16:29;12.70;;;2.67;;
21581;SDS011;10952;50.836;4.348;2023-05-16T06:21:26;19.07;;;2.63;;
21581;SDS011;10952;50.836;4.348;2023-05-16T06:23:55;16.07;;;2.70;;
21581;SDS011;10952;50.836;4.348;2023-05-16T06:26:24;11.03;;;2.40;;
21581;SDS011;10952;50.836;4.348;2023-05-16T06:29:04;13.50;;;2.70;;
21581;SDS011;10952;50.836;4.348;2023-05-16T06:31:30;15.23;;;2.00;;
21581;SDS011;10952;50.836;4.348;2023-05-16T06:34:03;7.77;;;2.37;;
21581;SDS011;10952;50.836;4.348;2023-05-16T06:36:29;10.03;;;2.70;;
21581;SDS011;10952;50.836;4.348;2023-05-16T06:38:58;14.13;;;2.57;;
21581;SDS011;10952;50.836;4.348;2023-05-16T06:41:24;15.43;;;2.57;;
21581;SDS011;10952;50.836;4.348;2023-05-16T06:43:53;18.70;;;3.33;;
21581;SDS011;10952;50.836;4.348;2023-05-16T06:46:25;22.97;;;4.17;;
21581;SDS011;10952;50.836;4.348;2023-05-16T06:48:54;16.33;;;2.77;;
21581;SDS011;10952;50.836;4.348;2023-05-16T06:51:26;11.50;;;2.10;;
21581;SDS011;10952;50.836;4.348;2023-05-16T06:53:57;14.53;;;1.90;;
21581;SDS011;10952;50.836;4.348;2023-05-16T06:56:25;15.23;;;2.67;;
21581;SDS011;10952;50.836;4.348;2023-05-16T06:59:01;14.83;;;3.33;;
21581;SDS011;10952;50.836;4.348;2023-05-16T07:01:26;14.27;;;2.57;;
21581;SDS011;10952;50.836;4.348;2023-05-16T07:03:52;16.10;;;2.67;;
21581;SDS011;10952;50.836;4.348;2023-05-16T07:06:18;11.97;;;2.27;;
21581;SDS011;10952;50.836;4.348;2023-05-16T07:08:44;5.47;;;1.70;;
21581;SDS011;10952;50.836;4.348;2023-05-16T07:11:13;7.77;;;1.83;;
21581;SDS011;10952;50.836;4.348;2023-05-16T07:16:23;19.40;;;3.50;;
21581;SDS011;10952;50.836;4.348;2023-05-16T07:21:24;14.30;;;2.40;;
21581;SDS011;10952;50.836;4.348;2023-05-16T07:23:56;15.47;;;2.40;;
21581;SDS011;10952;50.836;4.348;2023-05-16T07:26:25;11.60;;;2.93;;
21581;SDS011;10952;50.836;4.348;2023-05-16T07:28:53;11.90;;;1.90;;
21581;SDS011;10952;50.836;4.348;2023-05-16T07:31:19;10.20;;;1.93;;
21581;SDS011;10952;50.836;4.348;2023-05-16T07:33:47;12.60;;;1.93;;
21581;SDS011;10952;50.836;4.348;2023-05-16T07:36:13;14.17;;;2.27;;
21581;SDS011;10952;50.836;4.348;2023-05-16T07:41:10;9.80;;;2.10;;
21581;SDS011;10952;50.836;4.348;2023-05-16T07:43:36;15.70;;;2.80;;
21581;SDS011;10952;50.836;4.348;2023-05-16T07:46:04;7.27;;;2.10;;
21581;SDS011;10952;50.836;4.348;2023-05-16T07:48:32;8.07;;;1.90;;
21581;SDS011;10952;50.836;4.348;2023-05-16T07:51:01;18.90;;;2.43;;
21581;SDS011;10952;50.836;4.348;2023-05-16T07:53:29;6.27;;;2.07;;
21581;SDS011;10952;50.836;4.348;2023-05-16T07:55:59;8.67;;;2.20;;
21581;SDS011;10952;50.836;4.348;2023-05-16T07:58:32;15.17;;;2.10;;
21581;SDS011;10952;50.836;4.348;2023-05-16T08:01:01;7.70;;;1.80;;
21581;SDS011;10952;50.836;4.348;2023-05-16T08:03:30;9.20;;;1.53;;
21581;SDS011;10952;50.836;4.348;2023-05-16T08:08:30;9.03;;;1.80;;
21581;SDS011;10952;50.836;4.348;2023-05-16T08:10:57;7.70;;;1.80;;
21581;SDS011;10952;50.836;4.348;2023-05-16T08:13:26;5.17;;;1.40;;
21581;SDS011;10952;50.836;4.348;2023-05-16T08:15:51;9.10;;;1.90;;
21581;SDS011;10952;50.836;4.348;2023-05-16T08:18:20;7.67;;;1.70;;
21581;SDS011;10952;50.836;4.348;2023-05-16T08:20:49;14.50;;;1.80;;
21581;SDS011;10952;50.836;4.348;2023-05-16T08:23:18;10.37;;;2.00;;
21581;SDS011;10952;50.836;4.348;2023-05-16T08:25:44;8.43;;;1.80;;
21581;SDS011;10952;50.836;4.348;2023-05-16T08:28:15;10.57;;;1.87;;
21581;SDS011;10952;50.836;4.348;2023-05-16T08:30:42;9.73;;;1.87;;
21581;SDS011;10952;50.836;4.348;2023-05-16T08:33:07;9.37;;;1.47;;
21581;SDS011;10952;50.836;4.348;2023-05-16T08:35:40;12.30;;;1.80;;
21581;SDS011;10952;50.836;4.348;2023-05-16T08:38:07;12.53;;;2.10;;
21581;SDS011;10952;50.836;4.348;2023-05-16T08:40:39;6.03;;;1.60;;
21581;SDS011;10952;50.836;4.348;2023-05-16T08:43:10;9.90;;;1.50;;
21581;SDS011;10952;50.836;4.348;2023-05-16T08:45:39;11.00;;;1.80;;
21581;SDS011;10952;50.836;4.348;2023-05-16T08:48:09;7.67;;;1.53;;
21581;SDS011;10952;50.836;4.348;2023-05-16T08:50:35;3.90;;;1.60;;
21581;SDS011;10952;50.836;4.348;2023-05-16T08:53:06;9.83;;;1.83;;
21581;SDS011;10952;50.836;4.348;2023-05-16T08:55:35;12.37;;;2.60;;
21581;SDS011;10952;50.836;4.348;2023-05-16T08:58:11;9.10;;;2.03;;
21581;SDS011;10952;50.836;4.348;2023-05-16T09:00:45;8.10;;;1.70;;
21581;SDS011;10952;50.836;4.348;2023-05-16T09:05:44;9.67;;;1.80;;
21581;SDS011;10952;50.836;4.348;2023-05-16T09:08:11;10.23;;;1.73;;
21581;SDS011;10952;50.836;4.348;2023-05-16T09:10:36;9.80;;;1.53;;
21581;SDS011;10952;50.836;4.348;2023-05-16T09:13:04;7.40;;;1.87;;
21581;SDS011;10952;50.836;4.348;2023-05-16T09:15:31;6.73;;;1.47;;
21581;SDS011;10952;50.836;4.348;2023-05-16T09:18:01;11.37;;;2.03;;
21581;SDS011;10952;50.836;4.348;2023-05-16T09:20:28;10.20;;;2.00;;
21581;SDS011;10952;50.836;4.348;2023-05-16T09:22:58;7.20;;;1.83;;
21581;SDS011;10952;50.836;4.348;2023-05-16T09:25:25;7.53;;;1.67;;
21581;SDS011;10952;50.836;4.348;2023-05-16T09:27:55;4.47;;;1.60;;
21581;SDS011;10952;50.836;4.348;2023-05-16T09:30:35;8.27;;;1.20;;
21581;SDS011;10952;50.836;4.348;2023-05-16T09:33:12;10.10;;;1.40;;
21581;SDS011;10952;50.836;4.348;2023-05-16T09:35:40;7.70;;;1.90;;
21581;SDS011;10952;50.836;4.348;2023-05-16T09:38:16;8.40;;;2.13;;
21581;SDS011;10952;50.836;4.348;2023-05-16T09:40:47;10.00;;;1.80;;
21581;SDS011;10952;50.836;4.348;2023-05-16T09:43:15;9.23;;;1.77;;
21581;SDS011;10952;50.836;4.348;2023-05-16T09:45:46;10.10;;;1.70;;
21581;SDS011;10952;50.836;4.348;2023-05-16T09:48:12;7.13;;;1.70;;
21581;SDS011;10952;50.836;4.348;2023-05-16T09:50:39;13.40;;;2.30;;
21581;SDS011;10952;50.836;4.348;2023-05-16T09:53:10;11.43;;;2.27;;
21581;SDS011;10952;50.836;4.348;2023-05-16T09:55:38;15.80;;;2.93;;
21581;SDS011;10952;50.836;4.348;2023-05-16T09:58:04;8.03;;;1.70;;
21581;SDS011;10952;50.836;4.348;2023-05-16T10:00:32;9.93;;;2.30;;
21581;SDS011;10952;50.836;4.348;2023-05-16T10:03:01;6.53;;;1.93;;
21581;SDS011;10952;50.836;4.348;2023-05-16T10:05:27;6.50;;;3.20;;
21581;SDS011;10952;50.836;4.348;2023-05-16T10:07:55;5.13;;;2.07;;
21581;SDS011;10952;50.836;4.348;2023-05-16T10:10:23;10.57;;;1.50;;
21581;SDS011;10952;50.836;4.348;2023-05-16T10:12:50;7.67;;;2.10;;
21581;SDS011;10952;50.836;4.348;2023-05-16T10:15:18;9.63;;;1.50;;
21581;SDS011;10952;50.836;4.348;2023-05-16T10:17:44;9.93;;;1.47;;
21581;SDS011;10952;50.836;4.348;2023-05-16T10:20:19;6.80;;;1.63;;
21581;SDS011;10952;50.836;4.348;2023-05-16T10:22:48;8.40;;;1.60;;
21581;SDS011;10952;50.836;4.348;2023-05-16T10:25:19;6.93;;;1.20;;
21581;SDS011;10952;50.836;4.348;2023-05-16T10:27:57;6.87;;;1.40;;
21581;SDS011;10952;50.836;4.348;2023-05-16T10:30:30;7.07;;;1.70;;
21581;SDS011;10952;50.836;4.348;2023-05-16T10:33:01;3.87;;;1.10;;
21581;SDS011;10952;50.836;4.348;2023-05-16T10:35:32;6.17;;;1.50;;
21581;SDS011;10952;50.836;4.348;2023-05-16T10:37:58;6.53;;;2.20;;
21581;SDS011;10952;50.836;4.348;2023-05-16T10:40:25;5.67;;;1.27;;
21581;SDS011;10952;50.836;4.348;2023-05-16T10:42:56;4.67;;;0.90;;
21581;SDS011;10952;50.836;4.348;2023-05-16T10:45:24;4.60;;;1.23;;
21581;SDS011;10952;50.836;4.348;2023-05-16T10:47:59;6.50;;;1.10;;
21581;SDS011;10952;50.836;4.348;2023-05-16T10:50:37;3.97;;;1.13;;
21581;SDS011;10952;50.836;4.348;2023-05-16T10:56:07;7.73;;;1.80;;
21581;SDS011;10952;50.836;4.348;2023-05-16T11:04:04;10.63;;;1.87;;
21581;SDS011;10952;50.836;4.348;2023-05-16T11:06:43;5.23;;;1.30;;
21581;SDS011;10952;50.836;4.348;2023-05-16T11:20:00;6.07;;;1.60;;
21581;SDS011;10952;50.836;4.348;2023-05-16T11:22:29;8.30;;;1.53;;
21581;SDS011;10952;50.836;4.348;2023-05-16T11:25:05;6.30;;;1.60;;
21581;SDS011;10952;50.836;4.348;2023-05-16T11:27:48;8.17;;;1.27;;
21581;SDS011;10952;50.836;4.348;2023-05-16T11:30:15;4.53;;;1.87;;
21581;SDS011;10952;50.836;4.348;2023-05-16T11:32:43;4.37;;;0.93;;
21581;SDS011;10952;50.836;4.348;2023-05-16T11:35:16;10.90;;;3.27;;
21581;SDS011;10952;50.836;4.348;2023-05-16T11:37:48;9.57;;;1.70;;
21581;SDS011;10952;50.836;4.348;2023-05-16T11:40:16;5.43;;;1.30;;
21581;SDS011;10952;50.836;4.348;2023-05-16T11:42:42;9.07;;;1.53;;
21581;SDS011;10952;50.836;4.348;2023-05-16T11:45:16;6.20;;;1.43;;
21581;SDS011;10952;50.836;4.348;2023-05-16T11:47:44;4.90;;;1.37;;
21581;SDS011;10952;50.836;4.348;2023-05-16T11:52:39;5.73;;;1.77;;
21581;SDS011;10952;50.836;4.348;2023-05-16T11:55:08;8.50;;;1.50;;
21581;SDS011;10952;50.836;4.348;2023-05-16T11:57:38;7.93;;;1.77;;
21581;SDS011;10952;50.836;4.348;2023-05-16T12:00:15;7.70;;;1.90;;
21581;SDS011;10952;50.836;4.348;2023-05-16T12:02:47;5.67;;;1.57;;
21581;SDS011;10952;50.836;4.348;2023-05-16T12:05:14;6.40;;;1.50;;
21581;SDS011;10952;50.836;4.348;2023-05-16T12:07:42;8.20;;;1.40;;
21581;SDS011;10952;50.836;4.348;2023-05-16T12:10:18;5.27;;;1.37;;
21581;SDS011;10952;50.836;4.348;2023-05-16T12:12:46;8.67;;;1.53;;
21581;SDS011;10952;50.836;4.348;2023-05-16T12:15:14;5.83;;;1.20;;
21581;SDS011;10952;50.836;4.348;2023-05-16T12:17:43;6.00;;;1.77;;
21581;SDS011;10952;50.836;4.348;2023-05-16T12:20:10;7.33;;;1.57;;
21581;SDS011;10952;50.836;4.348;2023-05-16T12:22:39;5.83;;;1.27;;
21581;SDS011;10952;50.836;4.348;2023-05-16T12:28:00;5.07;;;1.03;;
21581;SDS011;10952;50.836;4.348;2023-05-16T12:30:27;8.40;;;1.37;;
21581;SDS011;10952;50.836;4.348;2023-05-16T12:35:28;8.30;;;1.73;;
21581;SDS011;10952;50.836;4.348;2023-05-16T12:37:55;5.00;;;1.97;;
21581;SDS011;10952;50.836;4.348;2023-05-16T12:40:28;6.60;;;1.40;;
21581;SDS011;10952;50.836;4.348;2023-05-16T12:45:31;6.47;;;1.37;;
21581;SDS011;10952;50.836;4.348;2023-05-16T12:48:03;5.70;;;1.27;;
21581;SDS011;10952;50.836;4.348;2023-05-16T12:50:31;3.90;;;1.17;;
21581;SDS011;10952;50.836;4.348;2023-05-16T12:52:58;4.50;;;1.40;;
21581;SDS011;10952;50.836;4.348;2023-05-16T12:55:25;4.57;;;1.00;;
21581;SDS011;10952;50.836;4.348;2023-05-16T12:57:53;6.23;;;1.00;;
21581;SDS011;10952;50.836;4.348;2023-05-16T13:00:20;3.37;;;1.33;;
21581;SDS011;10952;50.836;4.348;2023-05-16T13:02:47;4.83;;;1.27;;
21581;SDS011;10952;50.836;4.348;2023-05-16T13:05:13;7.77;;;2.40;;
21581;SDS011;10952;50.836;4.348;2023-05-16T13:07:39;4.27;;;1.07;;
21581;SDS011;10952;50.836;4.348;2023-05-16T13:10:08;5.57;;;1.13;;
21581;SDS011;10952;50.836;4.348;2023-05-16T13:12:38;4.13;;;1.23;;
21581;SDS011;10952;50.836;4.348;2023-05-16T13:15:05;5.53;;;1.03;;
21581;SDS011;10952;50.836;4.348;2023-05-16T13:17:37;6.27;;;1.37;;
21581;SDS011;10952;50.836;4.348;2023-05-16T13:20:08;10.67;;;1.90;;
21581;SDS011;10952;50.836;4.348;2023-05-16T13:22:39;6.90;;;1.40;;
21581;SDS011;10952;50.836;4.348;2023-05-16T13:25:05;4.23;;;1.23;;
21581;SDS011;10952;50.836;4.348;2023-05-16T13:27:32;8.50;;;1.73;;
21581;SDS011;10952;50.836;4.348;2023-05-16T13:30:00;5.00;;;1.13;;
21581;SDS011;10952;50.836;4.348;2023-05-16T13:32:28;4.77;;;1.00;;
21581;SDS011;10952;50.836;4.348;2023-05-16T13:34:56;5.90;;;1.30;;
21581;SDS011;10952;50.836;4.348;2023-05-16T13:37:22;4.97;;;1.10;;
21581;SDS011;10952;50.836;4.348;2023-05-16T13:39:49;6.07;;;1.50;;
21581;SDS011;10952;50.836;4.348;2023-05-16T13:42:14;3.83;;;1.27;;
21581;SDS011;10952;50.836;4.348;2023-05-16T13:44:40;7.83;;;1.80;;
21581;SDS011;10952;50.836;4.348;2023-05-16T13:47:09;6.33;;;1.60;;
21581;SDS011;10952;50.836;4.348;2023-05-16T13:49:35;6.03;;;1.23;;
21581;SDS011;10952;50.836;4.348;2023-05-16T13:52:02;4.93;;;2.00;;
21581;SDS011;10952;50.836;4.348;2023-05-16T13:54:29;7.23;;;1.70;;
21581;SDS011;10952;50.836;4.348;2023-05-16T13:57:12;8.50;;;1.23;;
21581;SDS011;10952;50.836;4.348;2023-05-16T13:59:38;4.77;;;1.57;;
21581;SDS011;10952;50.836;4.348;2023-05-16T14:02:11;5.80;;;1.37;;
21581;SDS011;10952;50.836;4.348;2023-05-16T14:04:43;4.10;;;1.30;;
21581;SDS011;10952;50.836;4.348;2023-05-16T14:09:37;5.10;;;1.70;;
21581;SDS011;10952;50.836;4.348;2023-05-16T14:12:06;5.13;;;0.90;;
21581;SDS011;10952;50.836;4.348;2023-05-16T14:14:34;5.83;;;1.23;;
21581;SDS011;10952;50.836;4.348;2023-05-16T14:17:00;3.77;;;1.00;;
21581;SDS011;10952;50.836;4.348;2023-05-16T14:19:29;5.97;;;1.60;;
21581;SDS011;10952;50.836;4.348;2023-05-16T14:21:54;5.90;;;1.30;;
21581;SDS011;10952;50.836;4.348;2023-05-16T14:26:50;6.27;;;1.10;;
21581;SDS011;10952;50.836;4.348;2023-05-16T14:29:21;7.03;;;1.67;;
21581;SDS011;10952;50.836;4.348;2023-05-16T14:31:52;7.17;;;2.03;;
21581;SDS011;10952;50.836;4.348;2023-05-16T14:34:26;4.30;;;1.30;;
21581;SDS011;10952;50.836;4.348;2023-05-16T14:36:52;7.97;;;1.50;;
21581;SDS011;10952;50.836;4.348;2023-05-16T14:39:23;7.77;;;1.50;;
21581;SDS011;10952;50.836;4.348;2023-05-16T14:41:49;11.97;;;2.63;;
21581;SDS011;10952;50.836;4.348;2023-05-16T14:44:15;6.83;;;1.20;;
21581;SDS011;10952;50.836;4.348;2023-05-16T14:46:40;5.60;;;1.13;;
21581;SDS011;10952;50.836;4.348;2023-05-16T14:49:07;2.43;;;0.73;;
21581;SDS011;10952;50.836;4.348;2023-05-16T14:51:33;4.93;;;1.40;;
21581;SDS011;10952;50.836;4.348;2023-05-16T14:53:59;7.40;;;1.20;;
21581;SDS011;10952;50.836;4.348;2023-05-16T14:56:25;2.63;;;1.00;;
21581;SDS011;10952;50.836;4.348;2023-05-16T14:58:52;3.47;;;0.80;;
21581;SDS011;10952;50.836;4.348;2023-05-16T15:01:18;4.20;;;1.00;;
21581;SDS011;10952;50.836;4.348;2023-05-16T15:03:44;2.70;;;0.73;;
21581;SDS011;10952;50.836;4.348;2023-05-16T15:06:10;10.23;;;1.53;;
21581;SDS011;10952;50.836;4.348;2023-05-16T15:08:36;8.27;;;1.50;;
21581;SDS011;10952;50.836;4.348;2023-05-16T15:11:02;2.93;;;1.20;;
21581;SDS011;10952;50.836;4.348;2023-05-16T15:13:28;5.60;;;1.10;;
21581;SDS011;10952;50.836;4.348;2023-05-16T15:15:54;5.00;;;0.90;;
21581;SDS011;10952;50.836;4.348;2023-05-16T15:18:22;7.00;;;1.00;;
21581;SDS011;10952;50.836;4.348;2023-05-16T15:20:48;5.70;;;1.47;;
21581;SDS011;10952;50.836;4.348;2023-05-16T15:23:16;5.97;;;1.10;;
21581;SDS011;10952;50.836;4.348;2023-05-16T15:25:42;4.80;;;1.20;;
21581;SDS011;10952;50.836;4.348;2023-05-16T15:28:07;7.57;;;1.30;;
21581;SDS011;10952;50.836;4.348;2023-05-16T15:30:33;5.47;;;1.43;;
21581;SDS011;10952;50.836;4.348;2023-05-16T15:32:59;6.70;;;1.20;;
21581;SDS011;10952;50.836;4.348;2023-05-16T15:35:25;7.83;;;1.20;;
21581;SDS011;10952;50.836;4.348;2023-05-16T15:37:51;7.33;;;1.30;;
21581;SDS011;10952;50.836;4.348;2023-05-16T15:40:20;8.17;;;1.50;;
21581;SDS011;10952;50.836;4.348;2023-05-16T15:42:45;3.37;;;1.00;;
21581;SDS011;10952;50.836;4.348;2023-05-16T15:45:12;7.20;;;1.63;;
21581;SDS011;10952;50.836;4.348;2023-05-16T15:47:40;2.83;;;0.80;;
21581;SDS011;10952;50.836;4.348;2023-05-16T15:50:07;6.00;;;1.60;;
21581;SDS011;10952;50.836;4.348;2023-05-16T15:52:33;6.60;;;1.13;;
21581;SDS011;10952;50.836;4.348;2023-05-16T15:55:00;6.30;;;1.73;;
21581;SDS011;10952;50.836;4.348;2023-05-16T15:57:29;5.00;;;1.30;;
21581;SDS011;10952;50.836;4.348;2023-05-16T15:59:55;5.80;;;1.27;;
21581;SDS011;10952;50.836;4.348;2023-05-16T16:02:20;4.13;;;1.33;;
21581;SDS011;10952;50.836;4.348;2023-05-16T16:04:47;8.80;;;1.63;;
21581;SDS011;10952;50.836;4.348;2023-05-16T16:07:13;5.97;;;1.10;;
21581;SDS011;10952;50.836;4.348;2023-05-16T16:09:39;5.60;;;1.77;;
21581;SDS011;10952;50.836;4.348;2023-05-16T16:12:05;7.70;;;1.43;;
21581;SDS011;10952;50.836;4.348;2023-05-16T16:14:31;8.03;;;1.93;;
21581;SDS011;10952;50.836;4.348;2023-05-16T16:16:57;8.23;;;1.37;;
21581;SDS011;10952;50.836;4.348;2023-05-16T16:19:23;4.17;;;1.50;;
21581;SDS011;10952;50.836;4.348;2023-05-16T16:21:50;5.77;;;1.27;;
21581;SDS011;10952;50.836;4.348;2023-05-16T16:24:17;6.60;;;1.40;;
21581;SDS011;10952;50.836;4.348;2023-05-16T16:26:44;5.00;;;1.20;;
21581;SDS011;10952;50.836;4.348;2023-05-16T16:29:10;5.27;;;1.50;;
21581;SDS011;10952;50.836;4.348;2023-05-16T16:31:37;5.53;;;1.83;;
21581;SDS011;10952;50.836;4.348;2023-05-16T16:34:05;4.97;;;1.27;;
21581;SDS011;10952;50.836;4.348;2023-05-16T16:36:32;6.33;;;1.40;;
21581;SDS011;10952;50.836;4.348;2023-05-16T16:39:00;6.47;;;1.80;;
21581;SDS011;10952;50.836;4.348;2023-05-16T16:41:29;14.80;;;2.50;;
21581;SDS011;10952;50.836;4.348;2023-05-16T16:43:55;5.67;;;1.40;;
21581;SDS011;10952;50.836;4.348;2023-05-16T16:46:20;7.27;;;1.10;;
21581;SDS011;10952;50.836;4.348;2023-05-16T16:48:48;4.93;;;1.37;;
21581;SDS011;10952;50.836;4.348;2023-05-16T16:51:18;5.23;;;1.40;;
21581;SDS011;10952;50.836;4.348;2023-05-16T16:53:46;5.30;;;1.30;;
21581;SDS011;10952;50.836;4.348;2023-05-16T16:56:13;3.03;;;0.80;;
21581;SDS011;10952;50.836;4.348;2023-05-16T16:58:39;3.93;;;0.80;;
21581;SDS011;10952;50.836;4.348;2023-05-16T17:01:06;3.40;;;1.17;;
21581;SDS011;10952;50.836;4.348;2023-05-16T17:03:39;7.43;;;2.03;;
21581;SDS011;10952;50.836;4.348;2023-05-16T17:06:06;7.87;;;1.60;;
21581;SDS011;10952;50.836;4.348;2023-05-16T17:08:33;5.03;;;1.50;;
21581;SDS011;10952;50.836;4.348;2023-05-16T17:11:00;3.47;;;1.10;;